createdAt,value
2022-10-31T00:00:02.144Z,98852.09
2022-10-31T00:01:10.994Z,98848.69
2022-10-31T00:02:12.577Z,98847.16
2022-10-31T00:03:14.080Z,98849.38
2022-10-31T00:04:15.851Z,98851.22
2022-10-31T00:05:17.365Z,98847.03
2022-10-31T00:06:19.347Z,98844.81
2022-10-31T00:07:20.773Z,98842.09
2022-10-31T00:08:22.267Z,98843.22
2022-10-31T00:09:23.709Z,98847.38
2022-10-31T00:10:25.389Z,98851.13
2022-10-31T00:11:27.515Z,98845.38
2022-10-31T00:12:28.984Z,98849.63
2022-10-31T00:13:30.818Z,98841.59
2022-10-31T00:14:32.240Z,98845.75
2022-10-31T00:15:38.211Z,98840.47
2022-10-31T00:16:41.596Z,98838.59
2022-10-31T00:17:43.092Z,98832.88
2022-10-31T00:18:44.796Z,98833.22
2022-10-31T00:19:46.354Z,98841.50
2022-10-31T00:20:47.812Z,98835.81
2022-10-31T00:21:49.276Z,98841.44
2022-10-31T00:22:50.733Z,98836.84
2022-10-31T00:23:52.545Z,98847.44
2022-10-31T00:24:53.962Z,98845.47
2022-10-31T00:25:55.670Z,98842.47
2022-10-31T00:26:57.081Z,98839.81
2022-10-31T00:27:58.669Z,98847.00
2022-10-31T00:29:01.685Z,98846.59
2022-10-31T00:30:03.407Z,98853.00
2022-10-31T00:31:07.696Z,98835.59
2022-10-31T00:32:09.150Z,98842.75
2022-10-31T00:33:10.601Z,98841.22
2022-10-31T00:34:12.061Z,98837.06
2022-10-31T00:35:13.690Z,98841.59
2022-10-31T00:36:17.961Z,98834.34
2022-10-31T00:37:19.406Z,98840.38
2022-10-31T00:38:21.600Z,98841.50
2022-10-31T00:39:23.100Z,98841.50
2022-10-31T00:40:24.556Z,98844.81
2022-10-31T00:41:26.013Z,98842.91
2022-10-31T00:42:27.572Z,98840.25
2022-10-31T00:43:29.330Z,98846.66
2022-10-31T00:44:30.742Z,98838.66
2022-10-31T00:45:32.182Z,98837.88
2022-10-31T00:46:33.628Z,98840.84
2022-10-31T00:47:35.237Z,98836.34
2022-10-31T00:48:36.743Z,98837.13
2022-10-31T00:49:38.176Z,98840.19
2022-10-31T00:50:40.133Z,98838.28
2022-10-31T00:51:41.733Z,98839.81
2022-10-31T00:52:43.177Z,98847.34
2022-10-31T00:53:45.232Z,98837.88
2022-10-31T00:54:46.719Z,98840.53
2022-10-31T00:55:48.482Z,98835.53
2022-10-31T00:56:50.652Z,98838.09
2022-10-31T00:57:52.202Z,98842.59
2022-10-31T00:58:54.223Z,98841.84
2022-10-31T00:59:55.689Z,98838.84
2022-10-31T01:00:57.373Z,98841.13
2022-10-31T01:01:59.130Z,98843.09
2022-10-31T01:03:01.396Z,98833.28
2022-10-31T01:04:03.435Z,98837.03
2022-10-31T01:05:05.159Z,98830.25
2022-10-31T01:06:10.200Z,98833.22
2022-10-31T01:07:13.251Z,98839.59
2022-10-31T01:08:14.731Z,98844.88
2022-10-31T01:09:16.228Z,98837.66
2022-10-31T01:10:18.965Z,98839.53
2022-10-31T01:11:23.399Z,98839.53
2022-10-31T01:12:24.853Z,98836.88
2022-10-31T01:13:26.310Z,98834.25
2022-10-31T01:14:27.789Z,98837.59
2022-10-31T01:15:29.216Z,98831.47
2022-10-31T01:16:30.736Z,98839.72
2022-10-31T01:17:32.209Z,98838.91
2022-10-31T01:18:34.421Z,98834.28
2022-10-31T01:19:35.870Z,98835.41
2022-10-31T01:20:37.297Z,98834.66
2022-10-31T01:21:38.737Z,98833.44
2022-10-31T01:22:40.149Z,98831.50
2022-10-31T01:23:42.296Z,98839.09
2022-10-31T01:24:43.775Z,98839.00
2022-10-31T01:25:45.266Z,98834.75
2022-10-31T01:26:46.754Z,98837.03
2022-10-31T01:27:48.228Z,98842.00
2022-10-31T01:28:53.426Z,98843.50
2022-10-31T01:29:54.913Z,98845.81
2022-10-31T01:30:56.449Z,98845.03
2022-10-31T01:31:57.925Z,98834.13
2022-10-31T01:32:59.914Z,98842.13
2022-10-31T01:34:01.872Z,98841.81
2022-10-31T01:35:03.706Z,98836.94
2022-10-31T01:36:19.341Z,98844.44
2022-10-31T01:37:20.745Z,98836.09
2022-10-31T01:38:23.317Z,98839.75
2022-10-31T01:39:24.789Z,98841.22
2022-10-31T01:40:30.524Z,98847.28
2022-10-31T01:41:34.480Z,98838.91
2022-10-31T01:42:35.937Z,98836.28
2022-10-31T01:44:23.736Z,98840.44
2022-10-31T01:45:25.488Z,98840.13
2022-10-31T01:46:40.443Z,98849.91
2022-10-31T01:47:46.957Z,98847.59
2022-10-31T01:48:49.440Z,98843.88
2022-10-31T01:49:55.669Z,98845.31
2022-10-31T01:50:57.179Z,98846.06
2022-10-31T01:52:07.156Z,98840.44
2022-10-31T01:53:10.896Z,98843.16
2022-10-31T01:54:16.741Z,98842.13
2022-10-31T01:55:23.167Z,98842.97
2022-10-31T01:56:26.513Z,98841.09
2022-10-31T01:57:30.376Z,98842.63
2022-10-31T01:58:32.810Z,98843.75
2022-10-31T01:59:39.198Z,98843.75
2022-10-31T02:00:44.672Z,98837.69
2022-10-31T02:01:47.873Z,98842.97
2022-10-31T02:02:51.268Z,98839.56
2022-10-31T02:03:53.008Z,98844.84
2022-10-31T02:04:55.325Z,98844.38
2022-10-31T02:05:58.628Z,98839.84
2022-10-31T02:07:08.445Z,98844.38
2022-10-31T02:08:33.767Z,98841.38
2022-10-31T02:09:36.954Z,98839.50
2022-10-31T02:10:38.686Z,98848.19
2022-10-31T02:11:42.046Z,98842.91
2022-10-31T02:12:45.287Z,98845.97
2022-10-31T02:13:48.379Z,98846.06
2022-10-31T02:14:49.822Z,98842.63
2022-10-31T02:15:55.238Z,98842.63
2022-10-31T02:16:57.257Z,98845.28
2022-10-31T02:17:59.797Z,98835.81
2022-10-31T02:19:02.170Z,98843.75
2022-10-31T02:20:25.817Z,98839.94
2022-10-31T02:21:50.845Z,98845.88
2022-10-31T02:23:01.342Z,98844.69
2022-10-31T02:24:24.989Z,98833.38
2022-10-31T02:25:41.650Z,98832.28
2022-10-31T02:26:58.011Z,98834.56
2022-10-31T02:28:21.471Z,98840.59
2022-10-31T02:29:34.683Z,98837.88
2022-10-31T02:30:51.032Z,98832.97
2022-10-31T02:31:58.493Z,98836.00
2022-10-31T02:33:16.222Z,98832.59
2022-10-31T02:34:32.373Z,98833.63
2022-10-31T02:35:53.252Z,98826.16
2022-10-31T02:36:59.627Z,98827.25
2022-10-31T02:38:38.685Z,98827.94
2022-10-31T02:40:24.977Z,98832.09
2022-10-31T02:42:17.625Z,98826.47
2022-10-31T02:43:19.308Z,98824.53
2022-10-31T02:44:36.477Z,98827.19
2022-10-31T02:46:08.353Z,98825.22
2022-10-31T02:47:14.621Z,98822.94
2022-10-31T02:48:20.536Z,98824.81
2022-10-31T02:49:47.330Z,98822.09
2022-10-31T02:50:56.042Z,98822.00
2022-10-31T02:51:57.513Z,98821.59
2022-10-31T02:52:59.092Z,98818.19
2022-10-31T02:54:00.576Z,98819.72
2022-10-31T02:55:34.684Z,98818.09
2022-10-31T02:56:36.106Z,98827.88
2022-10-31T02:57:39.835Z,98819.22
2022-10-31T02:58:47.890Z,98820.66
2022-10-31T02:59:54.445Z,98813.50
2022-10-31T03:01:48.454Z,98822.88
2022-10-31T03:03:15.874Z,98822.88
2022-10-31T03:04:22.501Z,98820.56
2022-10-31T03:05:29.137Z,98823.97
2022-10-31T03:06:30.536Z,98820.56
2022-10-31T03:07:58.611Z,98822.38
2022-10-31T03:09:26.873Z,98812.50
2022-10-31T03:10:41.100Z,98821.16
2022-10-31T03:11:57.578Z,98822.69
2022-10-31T03:13:27.087Z,98820.06
2022-10-31T03:15:09.266Z,98826.84
2022-10-31T03:16:30.127Z,98824.16
2022-10-31T03:17:48.504Z,98827.13
2022-10-31T03:19:12.372Z,98829.00
2022-10-31T03:20:15.074Z,98815.03
2022-10-31T03:21:41.099Z,98830.09
2022-10-31T03:22:44.038Z,98824.84
2022-10-31T03:23:47.437Z,98826.28
2022-10-31T03:24:51.987Z,98826.53
2022-10-31T03:25:55.548Z,98836.31
2022-10-31T03:27:00.415Z,98829.50
2022-10-31T03:28:04.002Z,98831.81
2022-10-31T03:29:08.664Z,98837.88
2022-10-31T03:30:10.802Z,98835.56
2022-10-31T03:31:17.567Z,98830.28
2022-10-31T03:32:42.485Z,98831.66
2022-10-31T03:33:47.159Z,98837.19
2022-10-31T03:34:51.481Z,98826.88
2022-10-31T03:35:56.366Z,98828.00
2022-10-31T03:37:02.065Z,98834.34
2022-10-31T03:38:07.621Z,98834.69
2022-10-31T03:39:14.156Z,98833.59
2022-10-31T03:40:18.788Z,98826.69
2022-10-31T03:41:24.810Z,98830.78
2022-10-31T03:42:29.910Z,98836.38
2022-10-31T03:43:37.773Z,98836.72
2022-10-31T03:44:44.800Z,98832.66
2022-10-31T03:45:47.960Z,98840.88
2022-10-31T03:46:49.799Z,98842.41
2022-10-31T03:47:52.541Z,98842.88
2022-10-31T03:48:54.560Z,98836.47
2022-10-31T03:49:56.675Z,98841.41
2022-10-31T03:51:03.951Z,98840.31
2022-10-31T03:52:14.444Z,98841.84
2022-10-31T03:53:27.984Z,98840.72
2022-10-31T03:54:39.580Z,98847.03
2022-10-31T03:55:53.551Z,98831.56
2022-10-31T03:57:01.737Z,98842.41
2022-10-31T03:58:30.386Z,98852.91
2022-10-31T03:59:40.008Z,98841.00
2022-10-31T04:00:45.501Z,98845.09
2022-10-31T04:01:53.131Z,98837.97
2022-10-31T04:03:01.194Z,98844.44
2022-10-31T04:04:03.512Z,98843.34
2022-10-31T04:05:06.744Z,98836.63
2022-10-31T04:06:13.003Z,98839.72
2022-10-31T04:07:15.635Z,98839.38
2022-10-31T04:08:21.392Z,98834.84
2022-10-31T04:09:24.134Z,98832.56
2022-10-31T04:10:31.936Z,98831.03
2022-10-31T04:11:41.286Z,98831.03
2022-10-31T04:12:48.564Z,98841.13
2022-10-31T04:13:50.845Z,98830.47
2022-10-31T04:14:53.789Z,98832.44
2022-10-31T04:15:57.378Z,98834.75
2022-10-31T04:16:58.919Z,98833.22
2022-10-31T04:18:02.780Z,98836.63
2022-10-31T04:19:05.206Z,98830.91
2022-10-31T04:20:07.439Z,98832.91
2022-10-31T04:21:09.235Z,98829.16
2022-10-31T04:22:11.232Z,98832.56
2022-10-31T04:23:23.737Z,98830.69
2022-10-31T04:24:25.227Z,98833.75
2022-10-31T04:25:26.669Z,98829.16
2022-10-31T04:26:28.247Z,98829.94
2022-10-31T04:27:30.259Z,98826.84
2022-10-31T04:28:32.376Z,98826.53
2022-10-31T04:29:33.968Z,98822.78
2022-10-31T04:30:35.359Z,98822.78
2022-10-31T04:31:36.740Z,98837.06
2022-10-31T04:32:38.165Z,98820.81
2022-10-31T04:33:39.910Z,98824.88
2022-10-31T04:34:41.365Z,98821.78
2022-10-31T04:35:42.759Z,98828.94
2022-10-31T04:36:44.184Z,98824.78
2022-10-31T04:37:45.924Z,98823.66
2022-10-31T04:38:47.343Z,98827.84
2022-10-31T04:39:48.784Z,98830.06
2022-10-31T04:40:50.200Z,98823.56
2022-10-31T04:41:51.620Z,98828.53
2022-10-31T04:42:53.398Z,98820.09
2022-10-31T04:43:55.264Z,98820.88
2022-10-31T04:44:56.927Z,98819.41
2022-10-31T04:45:58.350Z,98815.25
2022-10-31T04:46:59.772Z,98818.28
2022-10-31T04:48:02.097Z,98822.81
2022-10-31T04:49:03.882Z,98820.88
2022-10-31T04:50:05.726Z,98817.13
2022-10-31T04:51:07.268Z,98815.59
2022-10-31T04:52:09.117Z,98820.34
2022-10-31T04:53:10.967Z,98813.47
2022-10-31T04:54:12.437Z,98819.75
2022-10-31T04:55:14.676Z,98818.19
2022-10-31T04:56:16.108Z,98818.97
2022-10-31T04:57:17.611Z,98815.75
2022-10-31T04:58:19.053Z,98816.41
2022-10-31T04:59:20.493Z,98820.25
2022-10-31T05:00:23.462Z,98813.09
2022-10-31T05:01:24.849Z,98815.28
2022-10-31T05:02:26.446Z,98817.53
2022-10-31T05:03:28.366Z,98812.34
2022-10-31T05:04:29.781Z,98812.75
2022-10-31T05:05:32.350Z,98815.75
2022-10-31T05:06:33.852Z,98814.22
2022-10-31T05:07:40.552Z,98812.25
2022-10-31T05:08:41.991Z,98819.75
2022-10-31T05:09:43.412Z,98808.34
2022-10-31T05:10:44.855Z,98812.06
2022-10-31T05:11:46.306Z,98817.75
2022-10-31T05:12:53.173Z,98814.72
2022-10-31T05:13:54.627Z,98820.28
2022-10-31T05:14:56.054Z,98822.16
2022-10-31T05:15:57.637Z,98817.75
2022-10-31T05:16:59.109Z,98822.63
2022-10-31T05:18:01.193Z,98817.00
2022-10-31T05:19:02.837Z,98818.88
2022-10-31T05:20:04.691Z,98814.38
2022-10-31T05:21:06.144Z,98817.34
2022-10-31T05:22:07.576Z,98817.75
2022-10-31T05:23:09.083Z,98818.00
2022-10-31T05:24:10.557Z,98819.53
2022-10-31T05:25:12.238Z,98821.06
2022-10-31T05:26:13.798Z,98818.88
2022-10-31T05:27:15.546Z,98824.91
2022-10-31T05:28:17.301Z,98815.13
2022-10-31T05:29:18.706Z,98815.13
2022-10-31T05:30:28.409Z,98824.66
2022-10-31T05:31:29.860Z,98816.75
2022-10-31T05:32:31.379Z,98816.66
2022-10-31T05:33:32.876Z,98818.97
2022-10-31T05:34:34.334Z,98823.13
2022-10-31T05:35:35.872Z,98823.22
2022-10-31T05:36:37.301Z,98819.50
2022-10-31T05:37:39.686Z,98822.13
2022-10-31T05:38:41.157Z,98819.91
2022-10-31T05:39:42.591Z,98812.44
2022-10-31T05:40:44.091Z,98817.72
2022-10-31T05:41:45.588Z,98821.13
2022-10-31T05:42:47.438Z,98811.34
2022-10-31T05:43:48.903Z,98819.16
2022-10-31T05:44:50.339Z,98816.41
2022-10-31T05:45:56.460Z,98818.63
2022-10-31T05:46:57.924Z,98817.00
2022-10-31T05:48:02.006Z,98821.94
2022-10-31T05:49:03.678Z,98821.50
2022-10-31T05:50:06.382Z,98822.16
2022-10-31T05:51:07.815Z,98824.81
2022-10-31T05:52:09.602Z,98821.75
2022-10-31T05:53:11.248Z,98824.38
2022-10-31T05:54:15.866Z,98829.22
2022-10-31T05:55:17.588Z,98821.75
2022-10-31T05:56:19.019Z,98828.97
2022-10-31T05:57:20.805Z,98831.28
2022-10-31T05:58:22.267Z,98828.66
2022-10-31T05:59:23.678Z,98823.69
2022-10-31T06:00:26.372Z,98831.19
2022-10-31T06:01:27.861Z,98824.38
2022-10-31T06:02:33.499Z,98828.44
2022-10-31T06:03:34.930Z,98822.84
2022-10-31T06:04:36.548Z,98827.03
2022-10-31T06:05:38.140Z,98822.16
2022-10-31T06:06:39.554Z,98821.06
2022-10-31T06:07:41.468Z,98821.06
2022-10-31T06:08:42.906Z,98816.91
2022-10-31T06:09:44.394Z,98818.00
2022-10-31T06:10:45.839Z,98814.94
2022-10-31T06:11:49.921Z,98820.88
2022-10-31T06:12:51.400Z,98819.38
2022-10-31T06:13:52.809Z,98823.88
2022-10-31T06:14:54.244Z,98820.44
2022-10-31T06:15:55.686Z,98818.50
2022-10-31T06:16:57.262Z,98817.63
2022-10-31T06:18:04.089Z,98818.41
2022-10-31T06:19:05.816Z,98827.41
2022-10-31T06:20:08.253Z,98818.41
2022-10-31T06:21:11.513Z,98827.41
2022-10-31T06:22:15.450Z,98828.06
2022-10-31T06:23:16.925Z,98827.97
2022-10-31T06:24:18.332Z,98830.50
2022-10-31T06:25:19.802Z,98822.94
2022-10-31T06:26:21.224Z,98822.94
2022-10-31T06:27:23.538Z,98828.53
2022-10-31T06:28:25.055Z,98826.66
2022-10-31T06:29:26.498Z,98825.91
2022-10-31T06:30:27.965Z,98825.91
2022-10-31T06:31:29.473Z,98824.56
2022-10-31T06:32:30.935Z,98829.28
2022-10-31T06:33:32.437Z,98825.94
2022-10-31T06:34:33.886Z,98828.03
2022-10-31T06:35:35.293Z,98826.25
2022-10-31T06:36:37.052Z,98830.41
2022-10-31T06:37:40.018Z,98832.38
2022-10-31T06:38:41.327Z,98825.66
2022-10-31T06:39:42.643Z,98828.72
2022-10-31T06:40:44.077Z,98832.47
2022-10-31T06:41:48.542Z,98834.34
2022-10-31T06:43:02.167Z,98836.63
2022-10-31T06:44:06.535Z,98834.78
2022-10-31T06:45:10.514Z,98834.09
2022-10-31T06:46:11.977Z,98834.53
2022-10-31T06:47:13.416Z,98831.81
2022-10-31T06:48:17.653Z,98837.41
2022-10-31T06:49:19.762Z,98840.81
2022-10-31T06:50:22.045Z,98840.13
2022-10-31T06:51:23.588Z,98838.25
2022-10-31T06:52:25.037Z,98838.25
2022-10-31T06:53:27.775Z,98844.28
2022-10-31T06:54:29.280Z,98844.28
2022-10-31T06:55:30.842Z,98846.94
2022-10-31T06:56:32.386Z,98845.50
2022-10-31T06:57:33.776Z,98842.88
2022-10-31T06:58:35.207Z,98839.88
2022-10-31T06:59:36.649Z,98839.56
2022-10-31T07:00:38.372Z,98847.91
2022-10-31T07:01:40.267Z,98842.28
2022-10-31T07:02:41.817Z,98837.88
2022-10-31T07:03:43.257Z,98836.44
2022-10-31T07:04:44.693Z,98840.59
2022-10-31T07:05:46.177Z,98842.56
2022-10-31T07:06:51.759Z,98842.22
2022-10-31T07:07:58.539Z,98838.50
2022-10-31T07:09:00.172Z,98844.09
2022-10-31T07:10:01.633Z,98841.91
2022-10-31T07:11:03.337Z,98838.50
2022-10-31T07:12:06.096Z,98848.25
2022-10-31T07:13:11.709Z,98849.81
2022-10-31T07:14:13.151Z,98846.84
2022-10-31T07:15:14.698Z,98849.91
2022-10-31T07:16:16.213Z,98855.19
2022-10-31T07:17:17.617Z,98847.69
2022-10-31T07:18:19.038Z,98849.25
2022-10-31T07:19:20.572Z,98855.38
2022-10-31T07:20:22.039Z,98852.41
2022-10-31T07:21:23.843Z,98849.09
2022-10-31T07:22:25.282Z,98854.78
2022-10-31T07:23:26.779Z,98848.41
2022-10-31T07:24:28.508Z,98849.91
2022-10-31T07:25:30.185Z,98843.56
2022-10-31T07:26:31.950Z,98845.50
2022-10-31T07:27:42.785Z,98847.81
2022-10-31T07:28:44.544Z,98851.63
2022-10-31T07:29:45.984Z,98849.00
2022-10-31T07:30:54.063Z,98846.81
2022-10-31T07:31:55.791Z,98848.31
2022-10-31T07:32:57.464Z,98852.91
2022-10-31T07:33:58.885Z,98852.91
2022-10-31T07:35:00.304Z,98856.34
2022-10-31T07:36:01.727Z,98852.59
2022-10-31T07:37:03.182Z,98849.94
2022-10-31T07:38:09.545Z,98859.38
2022-10-31T07:39:10.989Z,98851.13
2022-10-31T07:40:13.245Z,98851.97
2022-10-31T07:41:15.012Z,98852.47
2022-10-31T07:42:16.440Z,98853.00
2022-10-31T07:43:17.974Z,98857.69
2022-10-31T07:44:19.440Z,98858.09
2022-10-31T07:45:22.069Z,98857.84
2022-10-31T07:46:24.006Z,98857.91
2022-10-31T07:47:25.410Z,98854.59
2022-10-31T07:48:26.894Z,98854.34
2022-10-31T07:49:28.402Z,98860.03
2022-10-31T07:50:31.625Z,98855.59
2022-10-31T07:51:33.388Z,98858.69
2022-10-31T07:52:34.887Z,98861.72
2022-10-31T07:53:36.321Z,98858.06
2022-10-31T07:54:37.754Z,98863.84
2022-10-31T07:55:39.773Z,98857.97
2022-10-31T07:56:41.271Z,98859.97
2022-10-31T07:57:43.054Z,98862.34
2022-10-31T07:58:44.456Z,98863.59
2022-10-31T07:59:45.899Z,98860.28
2022-10-31T08:00:48.525Z,98861.53
2022-10-31T08:01:50.110Z,98859.03
2022-10-31T08:03:19.030Z,98859.09
2022-10-31T08:04:20.513Z,98859.94
2022-10-31T08:05:21.944Z,98858.56
2022-10-31T08:06:23.453Z,98863.59
2022-10-31T08:07:25.068Z,98859.94
2022-10-31T08:08:30.334Z,98857.75
2022-10-31T08:09:32.598Z,98858.97
2022-10-31T08:10:37.909Z,98856.78
2022-10-31T08:11:39.323Z,98857.56
2022-10-31T08:12:40.839Z,98855.44
2022-10-31T08:13:43.919Z,98846.84
2022-10-31T08:14:48.617Z,98854.50
2022-10-31T08:15:52.715Z,98850.81
2022-10-31T08:16:54.767Z,98844.84
2022-10-31T08:17:56.310Z,98848.75
2022-10-31T08:18:57.843Z,98847.69
2022-10-31T08:19:59.314Z,98845.09
2022-10-31T08:21:01.030Z,98846.97
2022-10-31T08:22:02.468Z,98847.34
2022-10-31T08:23:05.563Z,98842.44
2022-10-31T08:24:07.208Z,98846.22
2022-10-31T08:25:09.572Z,98847.34
2022-10-31T08:26:11.278Z,98839.41
2022-10-31T08:27:12.904Z,98837.16
2022-10-31T08:28:15.249Z,98839.88
2022-10-31T08:29:16.936Z,98839.94
2022-10-31T08:30:19.095Z,98847.50
2022-10-31T08:31:21.189Z,98841.13
2022-10-31T08:32:22.597Z,98837.69
2022-10-31T08:33:23.989Z,98839.25
2022-10-31T08:34:25.452Z,98838.47
2022-10-31T08:35:26.886Z,98832.38
2022-10-31T08:36:28.987Z,98846.34
2022-10-31T08:37:30.377Z,98840.63
2022-10-31T08:38:31.812Z,98838.75
2022-10-31T08:39:33.280Z,98835.00
2022-10-31T08:40:36.114Z,98833.13
2022-10-31T08:41:37.894Z,98840.69
2022-10-31T08:42:39.339Z,98840.28
2022-10-31T08:43:41.858Z,98847.09
2022-10-31T08:44:43.320Z,98840.69
2022-10-31T08:45:48.120Z,98838.81
2022-10-31T08:46:49.633Z,98838.03
2022-10-31T08:47:51.522Z,98840.00
2022-10-31T08:48:53.079Z,98839.28
2022-10-31T08:49:54.539Z,98834.34
2022-10-31T08:51:01.282Z,98842.75
2022-10-31T08:52:02.800Z,98832.59
2022-10-31T08:53:10.479Z,98839.09
2022-10-31T08:54:11.921Z,98832.31
2022-10-31T08:55:13.492Z,98834.25
2022-10-31T08:56:15.246Z,98836.59
2022-10-31T08:57:16.632Z,98826.78
2022-10-31T08:58:20.373Z,98823.06
2022-10-31T08:59:21.821Z,98829.53
2022-10-31T09:00:23.732Z,98831.38
2022-10-31T09:01:25.274Z,98831.75
2022-10-31T09:02:26.950Z,98827.59
2022-10-31T09:03:32.007Z,98827.19
2022-10-31T09:04:33.436Z,98831.75
2022-10-31T09:05:35.006Z,98831.06
2022-10-31T09:06:38.168Z,98828.34
2022-10-31T09:07:39.830Z,98829.88
2022-10-31T09:08:41.266Z,98825.06
2022-10-31T09:09:42.713Z,98833.00
2022-10-31T09:10:45.616Z,98833.81
2022-10-31T09:11:47.326Z,98829.69
2022-10-31T09:12:55.116Z,98825.16
2022-10-31T09:13:56.542Z,98830.88
2022-10-31T09:14:58.041Z,98830.13
2022-10-31T09:16:00.119Z,98829.00
2022-10-31T09:17:01.540Z,98824.50
2022-10-31T09:18:04.157Z,98824.53
2022-10-31T09:19:11.084Z,98830.25
2022-10-31T09:20:13.412Z,98820.13
2022-10-31T09:21:14.912Z,98822.84
2022-10-31T09:22:16.477Z,98823.22
2022-10-31T09:23:20.923Z,98822.16
2022-10-31T09:24:26.819Z,98815.72
2022-10-31T09:25:28.968Z,98817.28
2022-10-31T09:26:31.905Z,98813.56
2022-10-31T09:27:33.237Z,98811.72
2022-10-31T09:28:34.850Z,98822.38
2022-10-31T09:29:36.292Z,98809.19
2022-10-31T09:30:38.221Z,98815.72
2022-10-31T09:31:44.736Z,98818.41
2022-10-31T09:32:49.597Z,98816.88
2022-10-31T09:33:53.471Z,98817.28
2022-10-31T09:34:54.907Z,98826.84
2022-10-31T09:35:56.711Z,98818.22
2022-10-31T09:36:58.195Z,98822.47
2022-10-31T09:38:05.395Z,98817.59
2022-10-31T09:39:08.314Z,98821.44
2022-10-31T09:40:09.956Z,98821.06
2022-10-31T09:41:32.410Z,98822.47
2022-10-31T09:43:17.588Z,98819.75
2022-10-31T09:44:27.914Z,98827.44
2022-10-31T09:46:03.285Z,98822.94
2022-10-31T09:47:24.096Z,98817.97
2022-10-31T09:48:50.175Z,98819.84
2022-10-31T09:50:48.816Z,98818.69
2022-10-31T09:52:02.162Z,98818.19
2022-10-31T09:53:10.902Z,98815.09
2022-10-31T09:54:35.078Z,98811.72
2022-10-31T09:55:44.615Z,98816.25
2022-10-31T09:56:46.771Z,98820.44
2022-10-31T09:57:49.431Z,98813.25
2022-10-31T09:58:56.553Z,98817.44
2022-10-31T09:59:58.829Z,98821.66
2022-10-31T10:01:02.926Z,98816.72
2022-10-31T10:02:20.124Z,98814.88
2022-10-31T10:03:40.204Z,98808.03
2022-10-31T10:04:56.036Z,98802.75
2022-10-31T10:06:22.571Z,98808.44
2022-10-31T10:07:31.342Z,98808.06
2022-10-31T10:08:35.669Z,98800.91
2022-10-31T10:09:37.503Z,98809.28
2022-10-31T10:10:53.076Z,98800.91
2022-10-31T10:12:09.782Z,98799.78
2022-10-31T10:13:23.472Z,98797.91
2022-10-31T10:14:30.602Z,98798.31
2022-10-31T10:15:42.591Z,98797.56
2022-10-31T10:17:06.073Z,98801.75
2022-10-31T10:18:15.323Z,98794.19
2022-10-31T10:19:35.280Z,98796.47
2022-10-31T10:20:47.784Z,98788.53
2022-10-31T10:22:01.407Z,98790.03
2022-10-31T10:23:20.316Z,98790.03
2022-10-31T10:24:39.711Z,98788.88
2022-10-31T10:25:45.996Z,98788.88
2022-10-31T10:27:13.323Z,98790.38
2022-10-31T10:28:20.281Z,98786.22
2022-10-31T10:29:34.093Z,98788.50
2022-10-31T10:30:52.210Z,98785.53
2022-10-31T10:31:59.585Z,98787.00
2022-10-31T10:33:05.990Z,98784.34
2022-10-31T10:34:30.221Z,98784.34
2022-10-31T10:35:51.844Z,98783.28
2022-10-31T10:37:03.235Z,98779.50
2022-10-31T10:38:36.883Z,98779.53
2022-10-31T10:39:44.919Z,98779.94
2022-10-31T10:40:47.696Z,98772.75
2022-10-31T10:42:09.717Z,98780.34
2022-10-31T10:43:25.481Z,98780.44
2022-10-31T10:44:45.284Z,98785.00
2022-10-31T10:46:20.570Z,98781.97
2022-10-31T10:47:41.375Z,98776.28
2022-10-31T10:48:44.791Z,98771.31
2022-10-31T10:49:51.556Z,98774.75
2022-10-31T10:50:53.763Z,98773.63
2022-10-31T10:52:20.128Z,98764.13
2022-10-31T10:53:38.517Z,98759.94
2022-10-31T10:54:47.275Z,98763.00
2022-10-31T10:55:57.539Z,98758.81
2022-10-31T10:57:19.620Z,98756.88
2022-10-31T10:58:21.083Z,98758.44
2022-10-31T10:59:25.926Z,98756.91
2022-10-31T11:00:37.283Z,98752.34
2022-10-31T11:01:41.299Z,98749.69
2022-10-31T11:02:46.423Z,98747.81
2022-10-31T11:03:50.344Z,98742.47
2022-10-31T11:04:56.762Z,98745.91
2022-10-31T11:06:03.035Z,98740.97
2022-10-31T11:07:10.310Z,98750.84
2022-10-31T11:08:13.017Z,98742.09
2022-10-31T11:09:17.712Z,98740.94
2022-10-31T11:10:19.646Z,98739.03
2022-10-31T11:11:31.730Z,98744.00
2022-10-31T11:12:34.857Z,98734.50
2022-10-31T11:13:37.191Z,98737.53
2022-10-31T11:14:50.477Z,98735.25
2022-10-31T11:16:08.042Z,98727.25
2022-10-31T11:17:18.767Z,98726.09
2022-10-31T11:19:32.690Z,98727.63
2022-10-31T11:20:37.163Z,98717.38
2022-10-31T11:21:39.932Z,98713.16
2022-10-31T11:22:47.720Z,98713.56
2022-10-31T11:23:49.152Z,98706.72
2022-10-31T11:24:50.579Z,98699.84
2022-10-31T11:26:01.370Z,98709.00
2022-10-31T11:27:31.897Z,98706.72
2022-10-31T11:28:35.846Z,98705.94
2022-10-31T11:29:37.749Z,98699.09
2022-10-31T11:30:57.948Z,98701.38
2022-10-31T11:32:01.638Z,98690.34
2022-10-31T11:33:04.611Z,98688.44
2022-10-31T11:34:15.486Z,98684.59
2022-10-31T11:35:19.502Z,98686.50
2022-10-31T11:36:31.419Z,98693.75
2022-10-31T11:37:36.610Z,98689.91
2022-10-31T11:38:42.587Z,98690.31
2022-10-31T11:39:46.602Z,98691.84
2022-10-31T11:41:01.794Z,98683.06
2022-10-31T11:42:08.700Z,98691.47
2022-10-31T11:43:17.963Z,98680.03
2022-10-31T11:44:23.547Z,98688.41
2022-10-31T11:45:24.910Z,98687.63
2022-10-31T11:46:40.860Z,98688.75
2022-10-31T11:47:47.314Z,98683.81
2022-10-31T11:48:54.949Z,98677.72
2022-10-31T11:49:58.594Z,98673.53
2022-10-31T11:51:00.089Z,98674.28
2022-10-31T11:52:25.194Z,98675.03
2022-10-31T11:53:33.756Z,98674.63
2022-10-31T11:54:46.288Z,98671.19
2022-10-31T11:56:00.999Z,98668.50
2022-10-31T11:57:03.908Z,98660.88
2022-10-31T11:58:05.660Z,98672.28
2022-10-31T11:59:23.336Z,98663.91
2022-10-31T12:00:33.585Z,98661.97
2022-10-31T12:01:36.352Z,98659.66
2022-10-31T12:02:39.204Z,98661.16
2022-10-31T12:03:55.060Z,98656.97
2022-10-31T12:05:05.860Z,98656.91
2022-10-31T12:06:19.833Z,98660.72
2022-10-31T12:07:21.326Z,98658.41
2022-10-31T12:08:31.154Z,98652.28
2022-10-31T12:09:37.874Z,98652.63
2022-10-31T12:10:45.616Z,98649.22
2022-10-31T12:12:18.806Z,98654.16
2022-10-31T12:13:34.149Z,98652.22
2022-10-31T12:15:03.902Z,98653.34
2022-10-31T12:16:19.535Z,98657.16
2022-10-31T12:17:27.379Z,98653.72
2022-10-31T12:18:47.666Z,98647.97
2022-10-31T12:20:04.146Z,98646.00
2022-10-31T12:21:23.726Z,98644.44
2022-10-31T12:22:48.102Z,98638.72
2022-10-31T12:24:04.896Z,98634.13
2022-10-31T12:25:43.760Z,98641.34
2022-10-31T12:26:51.182Z,98631.44
2022-10-31T12:28:05.815Z,98641.34
2022-10-31T12:29:36.186Z,98634.84
2022-10-31T12:31:04.281Z,98626.06
2022-10-31T12:32:14.791Z,98627.16
2022-10-31T12:33:52.922Z,98622.16
2022-10-31T12:35:14.818Z,98619.47
2022-10-31T12:36:40.336Z,98620.97
2022-10-31T12:38:04.046Z,98621.34
2022-10-31T12:39:24.506Z,98620.53
2022-10-31T12:40:52.448Z,98624.34
2022-10-31T12:42:01.272Z,98616.72
2022-10-31T12:43:32.441Z,98617.09
2022-10-31T12:45:01.078Z,98615.25
2022-10-31T12:46:06.105Z,98608.72
2022-10-31T12:47:29.254Z,98602.94
2022-10-31T12:48:36.821Z,98607.16
2022-10-31T12:50:00.988Z,98606.00
2022-10-31T12:51:34.724Z,98604.44
2022-10-31T12:52:42.644Z,98595.25
2022-10-31T12:54:01.087Z,98594.81
2022-10-31T12:55:34.732Z,98602.84
2022-10-31T12:56:45.208Z,98593.66
2022-10-31T12:57:52.311Z,98596.72
2022-10-31T12:59:03.977Z,98600.47
2022-10-31T13:00:17.813Z,98597.41
2022-10-31T13:01:30.466Z,98593.94